Ailine Elizabeth — WCX4766 — position and weather

sailwx.info

Track history (hours):
 
Tides and Currents Weather Stations Pressure Air Temp Water Temp Dewpoint Dewpoint Depression Visibility Wind Speed Wind Dir Waves Ship Positions

Ailine Elizabeth

Owner: MARINE EXPRESS INC, Pittsburg, CA. More information available from US FCC via Universal Licensing System and Coast Guard Vessel Documentation Center.

Last reported at 2017-Dec-10 21:26 UTC. Time now 2017-Dec-12 04:37 UTC.
Position N 37°47' W 122°17'.

Length 25 m; draft 2 m.

MMSI: 367179250.

Date/timePositionNaut miles runAvg speedWind from/ knotsBaromVisibWave heightAir tempDewpointWater temp
2017-Dec-10 21:26N 37°47' W 122°17'3 7.3
2017-Dec-10 21:01N 37°46' W 122°20'1 2.4
2017-Dec-10 20:30N 37°44' W 122°20'2 4.8
2017-Dec-10 20:01N 37°47' W 122°20'3 5.1
2017-Dec-10 19:30N 37°47' W 122°17'0 0.0
2017-Dec-10 00:53N 37°47' W 122°17'3 9.1
2017-Dec-10 00:30N 37°45' W 122°21'2 3.4
2017-Dec-10 00:00N 37°47' W 122°20'2 4.7
2017-Dec-09 23:30N 37°47' W 122°17'510.4
2017-Dec-09 23:00N 37°51' W 122°23'3 6.9
2017-Dec-09 22:30N 37°53' W 122°25'3 5.6
2017-Dec-09 22:00N 37°51' W 122°23'3 5.6
2017-Dec-09 21:31N 37°48' W 122°22'4 7.8
2017-Dec-09 21:00N 37°47' W 122°17'0 0.0
2017-Dec-09 17:04N 37°47' W 122°17'0 0.1
2017-Dec-09 17:00N 37°47' W 122°17'3 6.6
2017-Dec-09 16:31N 37°46' W 122°21'0 0.1
2017-Dec-09 16:00N 37°46' W 122°21'3 6.6
2017-Dec-09 15:31N 37°47' W 122°17'0 0.0
2017-Dec-09 06:18N 37°47' W 122°17'3 8.6
2017-Dec-09 06:01N 37°47' W 122°21'2 4.4
2017-Dec-09 05:30N 37°47' W 122°23'2 3.8
2017-Dec-09 05:00N 37°48' W 122°21'1 2.6
2017-Dec-09 04:30N 37°48' W 122°19'3 5.2
2017-Dec-09 04:00N 37°46' W 122°21'2 3.7
2017-Dec-09 03:30N 37°47' W 122°23'0 0.0
2017-Dec-09 03:00N 37°47' W 122°23'0 0.1
2017-Dec-09 02:30N 37°47' W 122°23'0 0.1
2017-Dec-09 02:00N 37°47' W 122°23'4 9.0
2017-Dec-09 01:31N 37°48' W 122°18'0 0.4
2017-Dec-09 00:56N 37°47' W 122°17'0 0.0
2017-Dec-09 00:30N 37°47' W 122°17'0 1.0
2017-Dec-09 00:00N 37°48' W 122°17'2 3.2
2017-Dec-08 23:30N 37°47' W 122°15'2 4.6
2017-Dec-08 23:00N 37°48' W 122°18'3 7.0
2017-Dec-08 22:30N 37°45' W 122°21'0 0.1
2017-Dec-08 22:00N 37°45' W 122°21'0 0.0
2017-Dec-08 21:30N 37°45' W 122°21'0 0.1
2017-Dec-08 21:00N 37°45' W 122°21'0 0.0
2017-Dec-08 20:30N 37°45' W 122°21'0 0.1
2017-Dec-08 20:00N 37°45' W 122°21'0 0.1
2017-Dec-08 19:30N 37°45' W 122°21'2 3.9
2017-Dec-08 19:00N 37°47' W 122°21'3 2.0
2017-Dec-08 17:26N 37°47' W 122°17'410.2
2017-Dec-08 17:00N 37°50' W 122°22'611.6
2017-Dec-08 16:30N 37°55' W 122°25'0 0.6
2017-Dec-08 16:00N 37°55' W 122°25'4 8.0
2017-Dec-08 15:30N 37°51' W 122°23'612.3
2017-Dec-08 15:00N 37°47' W 122°17'0 0.0
2017-Dec-07 10:12N 37°47' W 122°17'1 4.9
2017-Dec-07 10:01N 37°48' W 122°18'612.8
2017-Dec-07 09:30N 37°52' W 122°24'4 7.7
2017-Dec-07 08:59N 37°55' W 122°27'0 0.9
2017-Dec-07 08:29N 37°55' W 122°27'511.1
2017-Dec-07 08:00N 37°51' W 122°23'611.3
2017-Dec-07 07:30N 37°47' W 122°17'  
2017-Dec-04 00:36N 37°47' W 122°17'0 3.2
2017-Dec-04 00:31N 37°48' W 122°18'4 7.2
2017-Dec-04 00:00N 37°46' W 122°22'1 2.2
2017-Dec-03 23:30N 37°46' W 122°21'2 3.6
2017-Dec-03 23:01N 37°47' W 122°20'2 0.1
2017-Dec-03 07:06N 37°47' W 122°17'0 1.4
2017-Dec-03 07:00N 37°48' W 122°17'4 7.5
2017-Dec-03 06:30N 37°45' W 122°21'0 0.4
2017-Dec-03 06:00N 37°45' W 122°21'0 0.4
2017-Dec-03 05:30N 37°45' W 122°21'0 0.2
2017-Dec-03 05:00N 37°45' W 122°21'0 0.2
2017-Dec-03 04:30N 37°45' W 122°21'2 4.2
2017-Dec-03 04:00N 37°47' W 122°20'2 4.6
2017-Dec-03 03:30N 37°47' W 122°17'0 0.0
2017-Dec-02 22:35N 37°47' W 122°17'0 0.1
2017-Dec-02 22:31N 37°47' W 122°17'0 0.5
2017-Dec-02 22:01N 37°48' W 122°18'4 7.5
2017-Dec-02 21:30N 37°45' W 122°21'4 7.7
2017-Dec-02 21:00N 37°47' W 122°17'1 2.8
2017-Dec-02 20:31N 37°48' W 122°19'3 5.1
2017-Dec-02 20:00N 37°46' W 122°21'3 1.2
2017-Dec-02 17:03N 37°47' W 122°17'0 0.1
2017-Dec-02 17:01N 37°47' W 122°17'3 6.8
2017-Dec-02 16:31N 37°45' W 122°21'0 0.0
2017-Dec-02 16:00N 37°45' W 122°21'3 6.8
2017-Dec-02 15:30N 37°47' W 122°17'0 0.0
2017-Dec-01 19:42N 37°47' W 122°17'1 7.2
2017-Dec-01 19:31N 37°48' W 122°19'4 8.5
2017-Dec-01 19:00N 37°44' W 122°16'3 6.1
2017-Dec-01 18:30N 37°46' W 122°19'2 4.9
2017-Dec-01 18:00N 37°47' W 122°17'  
Track history (hours):
 
Tides and Currents Weather Stations Pressure Air Temp Water Temp Dewpoint Dewpoint Depression Visibility Wind Speed Wind Dir Waves Ship Positions

Ailine Elizabeth

Owner: MARINE EXPRESS INC, Pittsburg, CA. More information available from US FCC via Universal Licensing System and Coast Guard Vessel Documentation Center.

Last reported at 2017-Dec-10 21:26 UTC. Time now 2017-Dec-12 04:37 UTC.
Position N 37°47' W 122°17'.

Length 25 m; draft 2 m.

MMSI: 367179250.

Date/timePositionNaut miles runAvg speedWind from/ knotsBaromVisibWave heightAir tempDewpointWater temp
2017-Dec-10 21:26N 37°47' W 122°17'3 7.3
2017-Dec-10 21:01N 37°46' W 122°20'1 2.4
2017-Dec-10 20:30N 37°44' W 122°20'2 4.8
2017-Dec-10 20:01N 37°47' W 122°20'3 5.1
2017-Dec-10 19:30N 37°47' W 122°17'0 0.0
2017-Dec-10 00:53N 37°47' W 122°17'3 9.1
2017-Dec-10 00:30N 37°45' W 122°21'2 3.4
2017-Dec-10 00:00N 37°47' W 122°20'2 4.7
2017-Dec-09 23:30N 37°47' W 122°17'510.4
2017-Dec-09 23:00N 37°51' W 122°23'3 6.9
2017-Dec-09 22:30N 37°53' W 122°25'3 5.6
2017-Dec-09 22:00N 37°51' W 122°23'3 5.6
2017-Dec-09 21:31N 37°48' W 122°22'4 7.8
2017-Dec-09 21:00N 37°47' W 122°17'0 0.0
2017-Dec-09 17:04N 37°47' W 122°17'0 0.1
2017-Dec-09 17:00N 37°47' W 122°17'3 6.6
2017-Dec-09 16:31N 37°46' W 122°21'0 0.1
2017-Dec-09 16:00N 37°46' W 122°21'3 6.6
2017-Dec-09 15:31N 37°47' W 122°17'0 0.0
2017-Dec-09 06:18N 37°47' W 122°17'3 8.6
2017-Dec-09 06:01N 37°47' W 122°21'2 4.4
2017-Dec-09 05:30N 37°47' W 122°23'2 3.8
2017-Dec-09 05:00N 37°48' W 122°21'1 2.6
2017-Dec-09 04:30N 37°48' W 122°19'3 5.2
2017-Dec-09 04:00N 37°46' W 122°21'2 3.7
2017-Dec-09 03:30N 37°47' W 122°23'0 0.0
2017-Dec-09 03:00N 37°47' W 122°23'0 0.1
2017-Dec-09 02:30N 37°47' W 122°23'0 0.1
2017-Dec-09 02:00N 37°47' W 122°23'4 9.0
2017-Dec-09 01:31N 37°48' W 122°18'0 0.4
2017-Dec-09 00:56N 37°47' W 122°17'0 0.0
2017-Dec-09 00:30N 37°47' W 122°17'0 1.0
2017-Dec-09 00:00N 37°48' W 122°17'2 3.2
2017-Dec-08 23:30N 37°47' W 122°15'2 4.6
2017-Dec-08 23:00N 37°48' W 122°18'3 7.0
2017-Dec-08 22:30N 37°45' W 122°21'0 0.1
2017-Dec-08 22:00N 37°45' W 122°21'0 0.0
2017-Dec-08 21:30N 37°45' W 122°21'0 0.1
2017-Dec-08 21:00N 37°45' W 122°21'0 0.0
2017-Dec-08 20:30N 37°45' W 122°21'0 0.1
2017-Dec-08 20:00N 37°45' W 122°21'0 0.1
2017-Dec-08 19:30N 37°45' W 122°21'2 3.9
2017-Dec-08 19:00N 37°47' W 122°21'3 2.0
2017-Dec-08 17:26N 37°47' W 122°17'410.2
2017-Dec-08 17:00N 37°50' W 122°22'611.6
2017-Dec-08 16:30N 37°55' W 122°25'0 0.6
2017-Dec-08 16:00N 37°55' W 122°25'4 8.0
2017-Dec-08 15:30N 37°51' W 122°23'612.3
2017-Dec-08 15:00N 37°47' W 122°17'0 0.0
2017-Dec-07 10:12N 37°47' W 122°17'1 4.9
2017-Dec-07 10:01N 37°48' W 122°18'612.8
2017-Dec-07 09:30N 37°52' W 122°24'4 7.7
2017-Dec-07 08:59N 37°55' W 122°27'0 0.9
2017-Dec-07 08:29N 37°55' W 122°27'511.1
2017-Dec-07 08:00N 37°51' W 122°23'611.3
2017-Dec-07 07:30N 37°47' W 122°17'  
2017-Dec-04 00:36N 37°47' W 122°17'0 3.2
2017-Dec-04 00:31N 37°48' W 122°18'4 7.2
2017-Dec-04 00:00N 37°46' W 122°22'1 2.2
2017-Dec-03 23:30N 37°46' W 122°21'2 3.6
2017-Dec-03 23:01N 37°47' W 122°20'2 0.1
2017-Dec-03 07:06N 37°47' W 122°17'0 1.4
2017-Dec-03 07:00N 37°48' W 122°17'4 7.5
2017-Dec-03 06:30N 37°45' W 122°21'0 0.4
2017-Dec-03 06:00N 37°45' W 122°21'0 0.4
2017-Dec-03 05:30N 37°45' W 122°21'0 0.2
2017-Dec-03 05:00N 37°45' W 122°21'0 0.2
2017-Dec-03 04:30N 37°45' W 122°21'2 4.2
2017-Dec-03 04:00N 37°47' W 122°20'2 4.6
2017-Dec-03 03:30N 37°47' W 122°17'0 0.0
2017-Dec-02 22:35N 37°47' W 122°17'0 0.1
2017-Dec-02 22:31N 37°47' W 122°17'0 0.5
2017-Dec-02 22:01N 37°48' W 122°18'4 7.5
2017-Dec-02 21:30N 37°45' W 122°21'4 7.7
2017-Dec-02 21:00N 37°47' W 122°17'1 2.8
2017-Dec-02 20:31N 37°48' W 122°19'3 5.1
2017-Dec-02 20:00N 37°46' W 122°21'3 1.2
2017-Dec-02 17:03N 37°47' W 122°17'0 0.1
2017-Dec-02 17:01N 37°47' W 122°17'3 6.8
2017-Dec-02 16:31N 37°45' W 122°21'0 0.0
2017-Dec-02 16:00N 37°45' W 122°21'3 6.8
2017-Dec-02 15:30N 37°47' W 122°17'0 0.0
2017-Dec-01 19:42N 37°47' W 122°17'1 7.2
2017-Dec-01 19:31N 37°48' W 122°19'4 8.5
2017-Dec-01 19:00N 37°44' W 122°16'3 6.1
2017-Dec-01 18:30N 37°46' W 122°19'2 4.9
2017-Dec-01 18:00N 37°47' W 122°17'  

Dump ship's entire track history